createdAt,value
2024-05-09T05:02:09.010Z,12.20
2024-05-09T05:07:11.578Z,12.20
2024-05-09T05:12:33.062Z,12.50
2024-05-09T05:17:35.795Z,12.30
2024-05-09T05:22:38.381Z,12.70
2024-05-09T05:27:40.894Z,12.50
2024-05-09T05:32:43.472Z,12.80
2024-05-09T05:37:46.026Z,13.30
2024-05-09T05:42:48.573Z,13.10
2024-05-09T05:47:51.823Z,12.50
2024-05-09T05:52:54.444Z,12.50
2024-05-09T05:57:56.921Z,12.60
2024-05-09T06:02:59.512Z,12.90
2024-05-09T06:08:02.119Z,14.00
2024-05-09T06:18:08.955Z,14.50
2024-05-09T06:23:12.521Z,14.30
2024-05-09T06:28:15.410Z,14.20
2024-05-09T06:33:18.218Z,14.10
2024-05-09T06:38:20.959Z,14.40
2024-05-09T06:43:23.632Z,14.20
2024-05-09T06:48:26.222Z,14.50
2024-05-09T06:53:28.712Z,14.90
2024-05-09T06:58:31.226Z,15.30
2024-05-09T07:03:34.746Z,15.30
2024-05-09T07:08:37.434Z,15.30
2024-05-09T07:13:39.964Z,15.50
2024-05-09T07:23:47.323Z,16.10
2024-05-09T07:28:50.126Z,16.30
2024-05-09T07:33:52.865Z,16.40
2024-05-09T07:38:55.320Z,16.40
2024-05-09T07:43:58.089Z,16.50
2024-05-09T07:50:35.841Z,16.50
2024-05-09T07:54:23.545Z,16.60
2024-05-09T07:59:26.250Z,16.80
2024-05-09T08:04:28.976Z,17.00
2024-05-09T08:14:34.699Z,17.50
2024-05-09T08:19:37.840Z,17.60
2024-05-09T08:24:41.032Z,17.80
2024-05-09T08:29:43.796Z,18.00
2024-05-09T08:34:46.557Z,18.10
2024-05-09T08:39:49.147Z,18.40
2024-05-09T08:44:52.840Z,18.50
2024-05-09T08:49:58.748Z,18.50
2024-05-09T08:55:01.882Z,18.60
2024-05-09T09:00:10.007Z,18.70
2024-05-09T09:05:17.836Z,18.80
2024-05-09T09:10:29.275Z,19.40
2024-05-09T09:15:34.723Z,19.50
2024-05-09T09:20:37.379Z,19.10
2024-05-09T09:25:40.874Z,18.90
2024-05-09T09:30:43.804Z,18.70
2024-05-09T09:35:46.505Z,18.60
2024-05-09T09:40:50.688Z,18.70
2024-05-09T09:45:55.373Z,18.80
2024-05-09T09:50:58.480Z,19.10
2024-05-09T09:56:03.403Z,19.20
2024-05-09T10:01:06.142Z,19.20
2024-05-09T10:06:10.778Z,19.40
2024-05-09T10:11:13.455Z,19.40
2024-05-09T10:16:22.304Z,19.60
2024-05-09T10:21:26.227Z,19.70
2024-05-09T10:26:39.061Z,19.50
2024-05-09T10:31:42.874Z,19.20
2024-05-09T10:36:45.544Z,19.40
2024-05-09T10:41:49.551Z,19.30
2024-05-09T10:46:54.768Z,19.60
2024-05-09T10:51:57.698Z,19.60
2024-05-09T10:57:00.461Z,19.70
2024-05-09T11:02:10.182Z,19.70
2024-05-09T11:07:14.705Z,19.40
2024-05-09T11:12:17.959Z,19.40
2024-05-09T11:17:21.414Z,19.30
2024-05-09T11:22:25.267Z,19.30
2024-05-09T11:27:27.869Z,19.40
2024-05-09T11:32:30.807Z,19.40
2024-05-09T11:37:35.309Z,19.60
2024-05-09T11:42:38.658Z,19.60
2024-05-09T11:47:41.483Z,19.60
2024-05-09T11:52:44.144Z,19.60
2024-05-09T11:57:46.787Z,19.50
2024-05-09T12:02:49.518Z,19.60
2024-05-09T12:07:52.567Z,19.50
2024-05-09T12:12:55.028Z,19.40
2024-05-09T12:18:00.212Z,19.10
2024-05-09T12:23:05.673Z,19.20
2024-05-09T12:28:09.123Z,19.20
2024-05-09T12:33:13.279Z,19.10
2024-05-09T12:38:16.388Z,19.00
2024-05-09T12:43:19.167Z,19.10
2024-05-09T12:48:22.008Z,19.10
2024-05-09T12:53:24.576Z,19.20
2024-05-09T12:58:27.442Z,19.30
2024-05-09T13:03:30.306Z,19.40
2024-05-09T13:08:33.022Z,19.60
2024-05-09T13:13:35.751Z,19.50
2024-05-09T13:18:38.599Z,19.60
2024-05-09T13:23:41.241Z,19.50
2024-05-09T13:28:43.819Z,19.60
2024-05-09T13:33:46.478Z,19.70
2024-05-09T13:38:49.178Z,19.70
2024-05-09T13:43:53.743Z,19.70
2024-05-09T13:48:56.504Z,19.90
2024-05-09T13:53:59.444Z,19.80
2024-05-09T13:59:02.849Z,19.80
2024-05-09T14:04:05.725Z,19.80
2024-05-09T14:09:09.915Z,19.60
2024-05-09T14:14:12.550Z,19.20
2024-05-09T14:19:15.360Z,19.60
2024-05-09T14:24:17.967Z,19.80
2024-05-09T14:29:20.406Z,19.90
2024-05-09T14:34:23.075Z,20.10
2024-05-09T14:39:25.830Z,20.10
2024-05-09T14:44:28.317Z,20.10
2024-05-09T14:49:31.354Z,20.20
2024-05-09T14:54:33.935Z,20.10
2024-05-09T14:59:36.511Z,20.10
2024-05-09T15:04:39.313Z,20.20
2024-05-09T15:09:41.884Z,20.00
2024-05-09T15:14:44.573Z,19.80
2024-05-09T15:19:47.500Z,20.10
2024-05-09T15:24:50.287Z,20.20
2024-05-09T15:29:52.809Z,20.00
2024-05-09T15:34:58.148Z,20.00
2024-05-09T15:40:00.906Z,20.00
2024-05-09T15:45:03.725Z,19.90
2024-05-09T15:50:11.887Z,19.80
2024-05-09T15:55:19.714Z,19.80
2024-05-09T16:00:36.467Z,19.70
2024-05-09T16:05:44.749Z,19.60
2024-05-09T16:10:48.019Z,19.50
2024-05-09T16:15:51.094Z,19.50
2024-05-09T16:20:59.741Z,19.60
2024-05-09T16:26:02.494Z,19.70
2024-05-09T16:31:05.373Z,19.80
2024-05-09T16:36:08.128Z,19.80
2024-05-09T16:41:10.811Z,19.90
2024-05-09T16:46:13.429Z,19.90
2024-05-09T16:51:15.939Z,19.80
2024-05-09T16:56:18.582Z,19.90
2024-05-09T17:01:21.306Z,20.00
2024-05-09T17:06:24.146Z,19.90
2024-05-09T17:11:26.780Z,19.60
2024-05-09T17:16:30.452Z,19.30
2024-05-09T17:21:33.263Z,19.00
2024-05-09T17:26:35.873Z,18.70
2024-05-09T17:31:38.389Z,18.40
2024-05-09T17:36:40.981Z,18.10
2024-05-09T17:41:44.024Z,17.70
2024-05-09T17:46:46.699Z,17.30
2024-05-09T17:51:53.333Z,16.90
2024-05-09T17:56:56.026Z,16.50
2024-05-09T18:01:58.886Z,16.20
2024-05-09T18:07:01.568Z,15.80
2024-05-09T18:12:04.433Z,15.60
2024-05-09T18:17:07.295Z,15.50
2024-05-09T18:22:10.026Z,15.20
2024-05-09T18:27:12.698Z,15.10
2024-05-09T18:32:15.383Z,14.70
2024-05-09T18:37:18.147Z,13.60
2024-05-09T18:42:20.725Z,13.00
2024-05-09T18:52:26.313Z,12.10
2024-05-09T19:02:31.935Z,10.80
2024-05-09T19:07:34.752Z,10.70
2024-05-09T19:12:37.374Z,10.20
2024-05-09T19:17:40.143Z,10.20
2024-05-09T19:22:43.167Z,10.00
2024-05-09T19:27:46.132Z,10.00
2024-05-09T19:32:48.990Z,10.60
2024-05-09T19:37:52.834Z,11.10
2024-05-09T19:42:55.357Z,11.30
2024-05-09T19:47:58.324Z,11.50
2024-05-09T19:53:01.072Z,11.70
2024-05-09T19:58:05.598Z,11.80
2024-05-09T20:03:10.375Z,11.60
2024-05-09T20:08:13.221Z,11.60
2024-05-09T20:13:15.873Z,11.60
2024-05-09T20:18:18.775Z,12.00
2024-05-09T20:23:21.368Z,11.40
2024-05-09T20:28:24.004Z,10.90
2024-05-09T20:33:27.928Z,11.10
2024-05-09T20:38:30.412Z,11.10
2024-05-09T20:43:33.030Z,11.20
2024-05-09T20:48:35.862Z,11.70
2024-05-09T20:53:38.466Z,11.60
2024-05-09T20:58:41.089Z,11.90
2024-05-09T21:03:44.946Z,11.60
2024-05-09T21:08:47.712Z,11.40
2024-05-09T21:13:51.563Z,11.10
2024-05-09T21:18:54.122Z,11.10
2024-05-09T21:23:56.704Z,11.40
2024-05-09T21:28:59.239Z,11.30
2024-05-09T21:34:01.927Z,11.20
2024-05-09T21:39:04.648Z,10.90
2024-05-09T21:44:07.225Z,10.90
2024-05-09T21:49:10.997Z,11.00
2024-05-09T21:54:13.931Z,11.00
2024-05-09T21:59:16.421Z,10.80
2024-05-09T22:04:19.204Z,10.80
2024-05-09T22:09:21.844Z,10.80
2024-05-09T22:14:25.503Z,10.80
2024-05-09T22:19:29.707Z,10.60
2024-05-09T22:24:32.297Z,10.50
2024-05-09T22:29:34.814Z,10.50
2024-05-09T22:34:37.374Z,10.40
2024-05-09T22:39:39.932Z,10.40
2024-05-09T22:44:42.456Z,10.50
2024-05-09T22:49:45.076Z,10.60
2024-05-09T22:54:47.823Z,10.40
2024-05-09T22:59:50.417Z,10.40
2024-05-09T23:04:53.135Z,11.10
2024-05-09T23:09:55.848Z,11.40
2024-05-09T23:14:58.406Z,11.20
2024-05-09T23:20:00.996Z,10.90
2024-05-09T23:25:03.843Z,10.70
2024-05-09T23:30:11.983Z,10.40
2024-05-09T23:35:15.002Z,10.10
2024-05-09T23:40:19.114Z,10.30
2024-05-09T23:45:25.318Z,11.90
2024-05-09T23:50:34.371Z,12.00
2024-05-09T23:55:40.588Z,11.50
